KMEV/MEV METAR and TAF weather

Enter ICAO airport designator
Station Type Date Time Source
KMEV METAR 2019/05/21 20:55 UTC NOAA

KMEV 212055Z AUTO 32007G19KT 290V350 10SM FEW060 12/M04 A2976 RMK AO2


Station Type Date Time Source
KMEV Decoded METAR 2019/05/21 20:55 UTC NOAA

Station name not available
May 21, 2019 - 04:55 PM EDT / 2019.05.21 2055 UTC
Wind: from the NW (320 degrees) at 8 MPH (7 KT) gusting to 22 MPH (19 KT) (direction variable):0
Visibility: 10 mile(s):0
Sky conditions: mostly clear
Temperature: 53 F (12 C)
Dew Point: 24 F (-4 C)
Relative Humidity: 32%
Pressure (altimeter): 29.76 in. Hg (1007 hPa)
ob: KMEV 212055Z AUTO 32007G19KT 290V350 10SM FEW060 12/M04 A2976 RMK AO2
cycle: 21

Station Type Date Time Source
KMEV TAF UTC NOAA

Error!

Example: see airport list